createdAt,value
2023-05-04T00:00:38.091Z,100011.97
2023-05-04T00:03:07.958Z,100001.69
2023-05-04T00:05:37.667Z,99996.53
2023-05-04T00:08:10.097Z,99991.41
2023-05-04T00:10:39.777Z,99982.00
2023-05-04T00:13:09.548Z,99979.59
2023-05-04T00:15:39.461Z,99973.59
2023-05-04T00:18:09.262Z,99968.47
2023-05-04T00:20:38.969Z,99961.63
2023-05-04T00:23:11.356Z,99962.63
2023-05-04T00:25:41.045Z,99961.00
2023-05-04T00:28:10.760Z,99958.59
2023-05-04T00:30:40.565Z,99947.34
2023-05-04T00:33:10.381Z,99938.81
2023-05-04T00:35:40.280Z,99929.34
2023-05-04T00:38:13.474Z,99919.00
2023-05-04T00:40:43.238Z,99914.75
2023-05-04T00:43:14.310Z,99922.00
2023-05-04T00:45:44.200Z,99920.38
2023-05-04T00:48:14.195Z,99910.88
2023-05-04T00:50:43.985Z,99906.63
2023-05-04T00:53:16.533Z,99899.78
2023-05-04T00:55:46.278Z,99906.06
2023-05-04T00:58:16.018Z,99905.25
2023-05-04T01:00:45.765Z,99900.13
2023-05-04T01:03:15.692Z,99894.19
2023-05-04T01:05:49.607Z,99891.69
2023-05-04T01:08:24.848Z,99893.53
2023-05-04T01:10:59.623Z,99885.84
2023-05-04T01:13:31.199Z,99896.38
2023-05-04T01:16:01.180Z,99890.34
2023-05-04T01:18:30.876Z,99888.75
2023-05-04T01:21:00.577Z,99881.00
2023-05-04T01:23:33.097Z,99892.41
2023-05-04T01:26:06.650Z,99885.63
2023-05-04T01:28:42.477Z,99876.91
2023-05-04T01:31:13.096Z,99878.75
2023-05-04T01:33:43.301Z,99871.81
2023-05-04T01:36:13.012Z,99863.31
2023-05-04T01:38:45.328Z,99863.34
2023-05-04T01:41:15.042Z,99863.47
2023-05-04T01:43:45.294Z,99864.50
2023-05-04T01:46:15.087Z,99858.44
2023-05-04T01:48:44.805Z,99862.81
2023-05-04T01:51:14.547Z,99858.66
2023-05-04T01:53:46.898Z,99855.22
2023-05-04T01:56:16.720Z,99849.13
2023-05-04T01:58:46.475Z,99851.00
2023-05-04T02:01:16.665Z,99847.63
2023-05-04T02:03:46.600Z,99843.31
2023-05-04T02:06:16.496Z,99846.06
2023-05-04T02:08:49.502Z,99842.69
2023-05-04T02:11:19.300Z,99838.34
2023-05-04T02:13:49.161Z,99830.63
2023-05-04T02:16:18.874Z,99832.53
2023-05-04T02:18:49.202Z,99831.75
2023-05-04T02:21:18.945Z,99830.91
2023-05-04T02:23:51.262Z,99824.81
2023-05-04T02:26:21.132Z,99823.97
2023-05-04T02:28:50.803Z,99813.56
2023-05-04T02:31:20.557Z,99811.81
2023-05-04T02:33:50.270Z,99813.66
2023-05-04T02:36:19.909Z,99807.63
2023-05-04T02:38:52.282Z,99796.38
2023-05-04T02:41:22.010Z,99799.91
2023-05-04T02:43:51.748Z,99802.59
2023-05-04T02:46:22.331Z,99795.66
2023-05-04T02:48:55.573Z,99800.06
2023-05-04T02:51:26.295Z,99788.84
2023-05-04T02:53:58.609Z,99795.88
2023-05-04T02:56:28.398Z,99795.03
2023-05-04T02:58:58.202Z,99785.53
2023-05-04T03:01:28.017Z,99780.44
2023-05-04T03:03:57.711Z,99782.22
2023-05-04T03:06:27.568Z,99777.97
2023-05-04T03:08:59.882Z,99777.09
2023-05-04T03:11:29.623Z,99777.22
2023-05-04T03:13:59.288Z,99764.19
2023-05-04T03:16:29.086Z,99766.91
2023-05-04T03:18:59.044Z,99771.41
2023-05-04T03:21:29.290Z,99762.75
2023-05-04T03:24:01.755Z,99753.19
2023-05-04T03:26:31.511Z,99752.34
2023-05-04T03:29:01.255Z,99751.56
2023-05-04T03:31:31.008Z,99741.19
2023-05-04T03:34:00.768Z,99738.63
2023-05-04T03:36:30.698Z,99736.19
2023-05-04T03:39:03.465Z,99730.97
2023-05-04T03:41:33.945Z,99721.44
2023-05-04T03:44:03.642Z,99717.19
2023-05-04T03:46:33.623Z,99717.38
2023-05-04T03:49:03.388Z,99714.91
2023-05-04T03:51:33.361Z,99710.53
2023-05-04T03:54:07.414Z,99704.38
2023-05-04T03:56:37.209Z,99700.97
2023-05-04T03:59:07.031Z,99703.66
2023-05-04T04:01:37.306Z,99707.19
2023-05-04T04:04:07.688Z,99697.59
2023-05-04T04:06:39.994Z,99696.75
2023-05-04T04:09:13.768Z,99690.63
2023-05-04T04:11:43.676Z,99685.44
2023-05-04T04:14:13.392Z,99686.41
2023-05-04T04:16:43.103Z,99694.19
2023-05-04T04:19:12.882Z,99693.34
2023-05-04T04:21:42.511Z,99687.28
2023-05-04T04:24:14.875Z,99677.72
2023-05-04T04:26:44.565Z,99674.31
2023-05-04T04:29:14.699Z,99667.41
2023-05-04T04:31:44.398Z,99659.59
2023-05-04T04:34:14.059Z,99670.84
2023-05-04T04:36:44.022Z,99670.00
2023-05-04T04:39:17.135Z,99675.25
2023-05-04T04:41:46.886Z,99681.34
2023-05-04T04:44:16.658Z,99678.69
2023-05-04T04:46:47.516Z,99676.97
2023-05-04T04:49:18.010Z,99682.19
2023-05-04T04:51:49.028Z,99673.50
2023-05-04T04:54:21.426Z,99670.94
2023-05-04T04:56:51.178Z,99672.66
2023-05-04T04:59:20.879Z,99666.56
2023-05-04T05:01:50.587Z,99671.75
2023-05-04T05:04:22.451Z,99667.41
2023-05-04T05:06:54.286Z,99665.63
2023-05-04T05:09:27.330Z,99659.59
2023-05-04T05:11:58.607Z,99666.47
2023-05-04T05:14:29.390Z,99668.25
2023-05-04T05:17:00.509Z,99662.91
2023-05-04T05:19:31.567Z,99655.00
2023-05-04T05:22:02.387Z,99656.66
2023-05-04T05:24:36.344Z,99661.00
2023-05-04T05:27:07.098Z,99658.25
2023-05-04T05:29:37.897Z,99659.00
2023-05-04T05:32:09.468Z,99665.88
2023-05-04T05:34:40.288Z,99668.28
2023-05-04T05:37:10.356Z,99656.88
2023-05-04T05:39:43.079Z,99654.06
2023-05-04T05:42:12.957Z,99639.94
2023-05-04T05:44:42.809Z,99638.88
2023-05-04T05:47:12.586Z,99629.94
2023-05-04T05:49:44.162Z,99631.41
2023-05-04T05:52:15.330Z,99625.03
2023-05-04T05:54:47.559Z,99614.34
2023-05-04T05:57:17.733Z,99617.59
2023-05-04T05:59:47.569Z,99611.19
2023-05-04T06:02:17.360Z,99614.38
2023-05-04T06:04:48.196Z,99617.53
2023-05-04T06:07:19.548Z,99617.25
2023-05-04T06:09:52.306Z,99618.56
2023-05-04T06:12:22.149Z,99604.28
2023-05-04T06:14:51.869Z,99609.22
2023-05-04T06:17:21.882Z,99604.50
2023-05-04T06:19:51.609Z,99601.56
2023-05-04T06:22:21.345Z,99602.94
2023-05-04T06:24:57.601Z,99594.69
2023-05-04T06:27:32.727Z,99596.06
2023-05-04T06:30:02.668Z,99592.19
2023-05-04T06:32:32.356Z,99589.13
2023-05-04T06:35:02.835Z,99582.72
2023-05-04T06:37:32.594Z,99581.38
2023-05-04T06:40:05.381Z,99586.13
2023-05-04T06:42:35.216Z,99583.09
2023-05-04T06:45:05.196Z,99586.94
2023-05-04T06:47:38.072Z,99565.53
2023-05-04T06:50:12.158Z,99571.09
2023-05-04T06:52:42.775Z,99575.03
2023-05-04T06:55:15.566Z,99583.16
2023-05-04T06:57:45.268Z,99584.34
2023-05-04T07:00:16.342Z,99584.66
2023-05-04T07:02:47.083Z,99584.94
2023-05-04T07:05:17.890Z,99578.13
2023-05-04T07:07:48.616Z,99565.06
2023-05-04T07:10:22.998Z,99562.63
2023-05-04T07:12:52.786Z,99555.66
2023-05-04T07:15:22.916Z,99558.44
2023-05-04T07:17:53.140Z,99528.59
2023-05-04T07:20:25.785Z,99531.09
2023-05-04T07:22:57.372Z,99521.34
2023-05-04T07:25:30.384Z,99500.00
2023-05-04T07:28:00.145Z,99479.22
2023-05-04T07:30:29.958Z,99435.50
2023-05-04T07:32:59.711Z,99379.63
2023-05-04T07:35:29.892Z,99359.75
2023-05-04T07:37:59.612Z,99326.66
2023-05-04T07:40:31.942Z,99282.84
2023-05-04T07:43:01.697Z,99243.34
2023-05-04T07:45:31.424Z,99224.97
2023-05-04T07:48:01.183Z,99220.84
2023-05-04T07:50:30.926Z,99196.47
2023-05-04T07:53:00.955Z,99194.28
2023-05-04T07:55:33.439Z,99200.78
2023-05-04T07:58:03.388Z,99200.28
2023-05-04T08:00:33.051Z,99206.41
2023-05-04T08:03:02.745Z,99213.47
2023-05-04T08:05:32.450Z,99254.00
2023-05-04T08:08:02.275Z,99310.94
2023-05-04T08:10:34.630Z,99408.06
2023-05-04T08:13:04.382Z,99480.44
2023-05-04T08:15:34.081Z,99544.75
2023-05-04T08:18:03.738Z,99611.50
2023-05-04T08:20:33.488Z,99706.41
2023-05-04T08:23:04.088Z,99728.94
2023-05-04T08:25:36.513Z,99809.75
2023-05-04T08:28:06.634Z,99837.25
2023-05-04T08:30:36.320Z,99864.16
2023-05-04T08:33:05.983Z,99932.47
2023-05-04T08:35:35.720Z,99977.31
2023-05-04T08:38:05.379Z,99994.53
2023-05-04T08:40:37.825Z,100070.16
2023-05-04T08:43:07.692Z,100091.41
2023-05-04T08:45:40.602Z,100143.97
2023-05-04T08:48:10.720Z,100054.94
2023-05-04T08:50:41.413Z,100061.31
2023-05-04T08:53:16.310Z,100144.84
2023-05-04T08:55:49.755Z,100223.72
2023-05-04T08:58:20.086Z,100173.94
2023-05-04T09:00:50.120Z,100271.25
2023-05-04T09:03:20.166Z,100315.47
2023-05-04T09:05:50.886Z,100327.56
2023-05-04T09:08:21.036Z,100274.59
2023-05-04T09:10:53.417Z,100308.97
2023-05-04T09:13:23.176Z,100352.28
2023-05-04T09:15:59.628Z,100328.25
2023-05-04T09:18:39.200Z,100366.34
2023-05-04T09:21:09.579Z,100390.75
2023-05-04T09:23:49.335Z,100378.63
2023-05-04T09:26:29.517Z,100417.91
2023-05-04T09:28:59.572Z,100409.31
2023-05-04T09:31:29.292Z,100436.75
2023-05-04T09:33:59.276Z,100473.88
2023-05-04T09:36:28.913Z,100434.56
2023-05-04T09:38:58.589Z,100412.78
2023-05-04T09:41:37.354Z,100453.34
2023-05-04T09:44:07.471Z,100521.88
2023-05-04T09:46:37.686Z,100577.44
2023-05-04T09:49:07.405Z,100585.06
2023-05-04T09:51:37.072Z,100631.13
2023-05-04T09:54:07.218Z,100642.69
2023-05-04T09:56:44.756Z,100691.06
2023-05-04T09:59:14.731Z,100712.88
2023-05-04T10:01:45.029Z,100697.31
2023-05-04T10:04:15.033Z,100705.59
2023-05-04T10:06:46.034Z,100672.72
2023-05-04T10:09:16.716Z,100656.72
2023-05-04T10:11:48.993Z,100684.69
2023-05-04T10:14:18.770Z,100696.09
2023-05-04T10:16:53.375Z,100750.13
2023-05-04T10:19:47.228Z,100798.59
2023-05-04T10:22:30.602Z,100822.44
2023-05-04T10:25:10.494Z,100831.47
2023-05-04T10:27:49.586Z,100812.13
2023-05-04T10:30:20.547Z,100783.72
2023-05-04T10:32:58.187Z,100762.94
2023-05-04T10:35:28.448Z,100785.19
2023-05-04T10:37:59.236Z,100788.34
2023-05-04T10:40:39.389Z,100801.34
2023-05-04T10:43:13.291Z,100825.44
2023-05-04T10:45:44.184Z,100838.34
2023-05-04T10:48:14.267Z,100845.28
2023-05-04T10:50:47.809Z,100842.91
2023-05-04T10:53:18.619Z,100842.16
2023-05-04T10:55:49.625Z,100808.09
2023-05-04T10:58:31.337Z,100821.00
2023-05-04T11:01:01.150Z,100833.09
2023-05-04T11:03:41.576Z,100818.97
2023-05-04T11:06:19.549Z,100814.34
2023-05-04T11:08:52.116Z,100807.56
2023-05-04T11:11:21.944Z,100774.91
2023-05-04T11:13:54.998Z,100801.34
2023-05-04T11:16:28.226Z,100799.28
2023-05-04T11:18:58.057Z,100830.41
2023-05-04T11:21:28.128Z,100832.50
2023-05-04T11:23:59.424Z,100828.78
2023-05-04T11:26:29.495Z,100857.06
2023-05-04T11:29:01.908Z,100847.16
2023-05-04T11:31:31.838Z,100861.94
2023-05-04T11:34:01.741Z,100852.38
2023-05-04T11:36:32.307Z,100850.91
2023-05-04T11:39:02.048Z,100841.03
2023-05-04T11:41:31.937Z,100843.16
2023-05-04T11:44:04.497Z,100836.25
2023-05-04T11:46:35.764Z,100826.34
2023-05-04T11:49:06.648Z,100823.13
2023-05-04T11:51:36.475Z,100823.28
2023-05-04T11:54:07.444Z,100827.38
2023-05-04T11:56:44.576Z,100821.59
2023-05-04T11:59:16.894Z,100830.22
2023-05-04T12:01:47.914Z,100824.00
2023-05-04T12:04:17.664Z,100828.97
2023-05-04T12:06:47.878Z,100825.13
2023-05-04T12:09:17.617Z,100821.31
2023-05-04T12:11:56.665Z,100820.63
2023-05-04T12:14:28.955Z,100823.00
2023-05-04T12:17:02.922Z,100812.09
2023-05-04T12:19:32.824Z,100807.47
2023-05-04T12:22:05.194Z,100805.78
2023-05-04T12:24:34.901Z,100801.09
2023-05-04T12:27:05.077Z,100811.25
2023-05-04T12:29:37.366Z,100804.50
2023-05-04T12:32:07.246Z,100801.94
2023-05-04T12:34:37.067Z,100801.25
2023-05-04T12:37:06.723Z,100797.88
2023-05-04T12:39:36.432Z,100795.56
2023-05-04T12:42:06.962Z,100797.88
2023-05-04T12:44:39.256Z,100795.31
2023-05-04T12:47:09.562Z,100792.03
2023-05-04T12:49:39.304Z,100787.94
2023-05-04T12:52:09.081Z,100784.16
2023-05-04T12:54:38.766Z,100770.72
2023-05-04T12:57:08.496Z,100764.75
2023-05-04T12:59:40.779Z,100769.16
2023-05-04T13:02:10.739Z,100755.41
2023-05-04T13:04:40.592Z,100758.81
2023-05-04T13:07:10.655Z,100761.34
2023-05-04T13:09:40.299Z,100765.72
2023-05-04T13:12:10.197Z,100754.25
2023-05-04T13:14:42.528Z,100733.09
2023-05-04T13:17:12.246Z,100738.59
2023-05-04T13:19:41.956Z,100746.69
2023-05-04T13:22:11.691Z,100743.72
2023-05-04T13:24:41.521Z,100734.22
2023-05-04T13:27:11.173Z,100732.94
2023-05-04T13:29:44.259Z,100726.72
2023-05-04T13:32:14.111Z,100724.41
2023-05-04T13:34:43.956Z,100710.78
2023-05-04T13:37:18.468Z,100715.34
2023-05-04T13:39:48.907Z,100710.69
2023-05-04T13:42:18.585Z,100696.59
2023-05-04T13:44:50.967Z,100700.59
2023-05-04T13:47:20.769Z,100701.28
2023-05-04T13:49:50.412Z,100691.75
2023-05-04T13:52:20.102Z,100688.00
2023-05-04T13:54:49.788Z,100688.72
2023-05-04T13:57:19.471Z,100678.47
2023-05-04T14:00:05.915Z,100678.53
2023-05-04T14:02:43.446Z,100684.19
2023-05-04T14:05:13.996Z,100686.72
2023-05-04T14:07:43.816Z,100675.94
2023-05-04T14:10:13.996Z,100672.25
2023-05-04T14:12:44.071Z,100662.47
2023-05-04T14:15:16.735Z,100662.47
2023-05-04T14:17:46.558Z,100659.63
2023-05-04T14:20:16.831Z,100661.47
2023-05-04T14:22:47.541Z,100652.31
2023-05-04T14:25:17.302Z,100651.44
2023-05-04T14:27:46.970Z,100653.63
2023-05-04T14:30:19.732Z,100652.91
2023-05-04T14:32:50.259Z,100647.50
2023-05-04T14:35:20.113Z,100650.66
2023-05-04T14:37:50.290Z,100643.53
2023-05-04T14:40:19.955Z,100652.06
2023-05-04T14:42:49.584Z,100643.88
2023-05-04T14:45:21.981Z,100637.06
2023-05-04T14:47:51.858Z,100628.28
2023-05-04T14:50:21.543Z,100621.34
2023-05-04T14:52:51.283Z,100620.91
2023-05-04T14:55:20.988Z,100612.50
2023-05-04T14:57:51.062Z,100605.13
2023-05-04T15:00:23.759Z,100604.13
2023-05-04T15:02:53.576Z,100598.91
2023-05-04T15:05:23.333Z,100602.44
2023-05-04T15:07:53.034Z,100599.75
2023-05-04T15:10:22.690Z,100589.81
2023-05-04T15:12:52.931Z,100594.28
2023-05-04T15:15:25.239Z,100588.41
2023-05-04T15:17:55.257Z,100585.72
2023-05-04T15:20:25.007Z,100583.44
2023-05-04T15:22:54.705Z,100579.19
2023-05-04T15:25:25.170Z,100577.72
2023-05-04T15:27:55.137Z,100582.75
2023-05-04T15:30:27.430Z,100582.97
2023-05-04T15:32:57.192Z,100588.13
2023-05-04T15:35:26.956Z,100582.34
2023-05-04T15:37:56.756Z,100582.34
2023-05-04T15:40:26.743Z,100581.50
2023-05-04T15:42:56.556Z,100578.25
2023-05-04T15:45:28.939Z,100583.50
2023-05-04T15:48:00.336Z,100574.22
2023-05-04T15:50:31.690Z,100574.50
2023-05-04T15:53:02.761Z,100580.03
2023-05-04T15:55:32.492Z,100584.41
2023-05-04T15:58:02.500Z,100567.13
2023-05-04T16:00:34.888Z,100567.41
2023-05-04T16:03:04.853Z,100566.56
2023-05-04T16:05:34.938Z,100560.66
2023-05-04T16:08:04.757Z,100567.91
2023-05-04T16:10:34.441Z,100571.44
2023-05-04T16:13:05.447Z,100571.34
2023-05-04T16:15:37.927Z,100565.22
2023-05-04T16:18:08.223Z,100559.84
2023-05-04T16:20:38.029Z,100561.69
2023-05-04T16:23:07.720Z,100558.00
2023-05-04T16:25:37.403Z,100557.88
2023-05-04T16:28:07.296Z,100559.00
2023-05-04T16:30:42.410Z,100548.25
2023-05-04T16:33:12.610Z,100552.25
2023-05-04T16:35:42.283Z,100552.41
2023-05-04T16:38:11.962Z,100552.25
2023-05-04T16:40:41.711Z,100543.81
2023-05-04T16:43:12.975Z,100553.44
2023-05-04T16:45:45.418Z,100555.44
2023-05-04T16:48:15.256Z,100548.66
2023-05-04T16:50:45.024Z,100543.81
2023-05-04T16:53:14.655Z,100544.13
2023-05-04T16:55:44.300Z,100550.47
2023-05-04T16:58:13.983Z,100551.31
2023-05-04T17:00:46.420Z,100546.75
2023-05-04T17:03:16.227Z,100540.13
2023-05-04T17:05:45.920Z,100534.06
2023-05-04T17:08:17.253Z,100530.69
2023-05-04T17:10:46.986Z,100535.75
2023-05-04T17:13:16.794Z,100547.16
2023-05-04T17:15:49.157Z,100549.09
2023-05-04T17:18:18.939Z,100543.75
2023-05-04T17:20:48.759Z,100549.75
2023-05-04T17:23:18.443Z,100547.09
2023-05-04T17:25:48.388Z,100548.94
2023-05-04T17:28:18.036Z,100553.38
2023-05-04T17:30:50.312Z,100556.25
2023-05-04T17:33:20.089Z,100552.16
2023-05-04T17:35:49.723Z,100555.28
2023-05-04T17:38:19.384Z,100547.09
2023-05-04T17:40:49.131Z,100538.06
2023-05-04T17:43:18.804Z,100543.78
2023-05-04T17:45:52.462Z,100541.66
2023-05-04T17:48:24.166Z,100543.22
2023-05-04T17:50:54.051Z,100561.59
2023-05-04T17:53:23.675Z,100549.00
2023-05-04T17:55:53.360Z,100559.75
2023-05-04T17:58:23.074Z,100558.81
2023-05-04T18:00:55.546Z,100556.19
2023-05-04T18:03:25.318Z,100559.13
2023-05-04T18:05:55.120Z,100556.56
2023-05-04T18:08:24.808Z,100553.72
2023-05-04T18:10:54.473Z,100562.09
2023-05-04T18:13:24.302Z,100552.59
2023-05-04T18:15:56.787Z,100552.41
2023-05-04T18:18:26.516Z,100558.72
2023-05-04T18:20:56.324Z,100557.09
2023-05-04T18:23:26.247Z,100556.59
2023-05-04T18:25:55.933Z,100536.84
2023-05-04T18:28:25.933Z,100546.59
2023-05-04T18:30:58.280Z,100553.69
2023-05-04T18:33:28.130Z,100550.41
2023-05-04T18:35:57.926Z,100552.25
2023-05-04T18:38:28.718Z,100547.88
2023-05-04T18:40:58.419Z,100532.19
2023-05-04T18:43:28.201Z,100523.81
2023-05-04T18:46:00.608Z,100537.59
2023-05-04T18:48:30.456Z,100509.16
2023-05-04T18:51:00.133Z,100506.75
2023-05-04T18:53:29.885Z,100493.56
2023-05-04T18:56:03.882Z,100485.91
2023-05-04T18:58:34.146Z,100484.00
2023-05-04T19:01:06.715Z,100441.22
2023-05-04T19:03:36.833Z,100385.16
2023-05-04T19:06:06.792Z,100342.56
2023-05-04T19:08:36.569Z,100275.56
2023-05-04T19:11:07.182Z,100244.38
2023-05-04T19:13:37.027Z,100233.78
2023-05-04T19:16:14.353Z,100216.53
2023-05-04T19:18:44.364Z,100215.09
2023-05-04T19:21:14.169Z,100198.31
2023-05-04T19:23:43.885Z,100176.94
2023-05-04T19:26:13.595Z,100157.78
2023-05-04T19:28:43.557Z,100139.81
2023-05-04T19:31:15.958Z,100133.03
2023-05-04T19:33:48.763Z,100137.59
2023-05-04T19:36:18.760Z,100127.13
2023-05-04T19:38:48.637Z,100119.75
2023-05-04T19:41:18.881Z,100128.44
2023-05-04T19:43:48.583Z,100123.56
2023-05-04T19:46:21.448Z,100087.09
2023-05-04T19:48:51.219Z,100082.41
2023-05-04T19:51:21.206Z,100084.88
2023-05-04T19:53:50.944Z,100059.81
2023-05-04T19:56:20.738Z,100060.56
2023-05-04T19:58:51.359Z,100041.78
2023-05-04T20:01:23.689Z,100020.25
2023-05-04T20:03:53.839Z,100022.97
2023-05-04T20:06:23.498Z,100021.91
2023-05-04T20:08:53.992Z,100024.50
2023-05-04T20:11:23.878Z,100011.78
2023-05-04T20:13:55.549Z,100006.22
2023-05-04T20:16:28.212Z,99993.75
2023-05-04T20:18:58.044Z,99980.94
2023-05-04T20:21:28.038Z,99971.63
2023-05-04T20:23:57.985Z,99949.94
2023-05-04T20:26:27.695Z,99937.25
2023-05-04T20:28:57.387Z,99918.50
2023-05-04T20:31:30.099Z,99922.63
2023-05-04T20:33:59.824Z,99915.25
2023-05-04T20:36:29.527Z,99901.72
2023-05-04T20:39:00.160Z,99895.19
2023-05-04T20:41:29.961Z,99893.13
2023-05-04T20:44:00.180Z,99862.75
2023-05-04T20:46:32.549Z,99841.22
2023-05-04T20:49:02.949Z,99799.34
2023-05-04T20:51:32.900Z,99761.75
2023-05-04T20:54:02.564Z,99743.84
2023-05-04T20:56:32.225Z,99697.69
2023-05-04T20:59:02.110Z,99668.19
2023-05-04T21:01:34.553Z,99635.91
2023-05-04T21:04:04.424Z,99591.56
2023-05-04T21:06:34.196Z,99578.03
2023-05-04T21:09:04.602Z,99567.19
2023-05-04T21:11:34.315Z,99551.75
2023-05-04T21:14:03.970Z,99545.97
2023-05-04T21:16:36.760Z,99530.63
2023-05-04T21:19:06.599Z,99505.84
2023-05-04T21:21:40.791Z,99524.09
2023-05-04T21:24:14.836Z,99626.22
2023-05-04T21:26:45.686Z,99627.66
2023-05-04T21:29:15.568Z,99708.88
2023-05-04T21:31:48.002Z,99717.78
2023-05-04T21:34:17.818Z,99756.00
2023-05-04T21:36:47.504Z,99770.63
2023-05-04T21:39:17.360Z,99792.72
2023-05-04T21:41:47.038Z,99830.84
2023-05-04T21:44:16.739Z,99840.75
2023-05-04T21:46:49.126Z,99838.66
2023-05-04T21:49:18.870Z,99851.50
2023-05-04T21:51:49.281Z,99864.19
2023-05-04T21:54:19.025Z,99869.88
2023-05-04T21:56:48.744Z,99859.94
2023-05-04T21:59:18.412Z,99870.16
2023-05-04T22:01:50.623Z,99881.38
2023-05-04T22:04:20.399Z,99882.13
2023-05-04T22:06:50.290Z,99879.91
2023-05-04T22:09:20.027Z,99893.13
2023-05-04T22:11:51.563Z,99888.41
2023-05-04T22:14:21.583Z,99902.06
2023-05-04T22:16:53.896Z,99913.31
2023-05-04T22:19:23.676Z,99913.19
2023-05-04T22:21:53.401Z,99912.09
2023-05-04T22:24:23.129Z,99921.41
2023-05-04T22:26:52.812Z,99924.81
2023-05-04T22:29:22.509Z,99910.50
2023-05-04T22:31:54.813Z,99925.16
2023-05-04T22:34:24.511Z,99936.41
2023-05-04T22:36:54.183Z,99934.44
2023-05-04T22:39:24.675Z,99931.56
2023-05-04T22:41:54.295Z,99931.28
2023-05-04T22:44:23.977Z,99933.94
2023-05-04T22:46:56.302Z,99936.34
2023-05-04T22:49:25.984Z,99923.03
2023-05-04T22:51:55.607Z,99930.91
2023-05-04T22:54:25.868Z,99935.00
2023-05-04T22:56:56.006Z,99952.34
2023-05-04T22:59:25.796Z,99953.53
2023-05-04T23:01:58.132Z,99964.75
2023-05-04T23:04:28.279Z,99988.41
2023-05-04T23:06:58.150Z,100003.03
2023-05-04T23:09:27.871Z,100005.47
2023-05-04T23:11:58.100Z,100018.34
2023-05-04T23:14:27.812Z,100023.25
2023-05-04T23:17:00.162Z,100020.34
2023-05-04T23:19:30.190Z,100013.06
2023-05-04T23:21:59.851Z,100022.75
2023-05-04T23:24:29.643Z,100013.78
2023-05-04T23:26:59.332Z,100016.19
2023-05-04T23:29:29.280Z,100022.25
2023-05-04T23:32:01.712Z,100027.91
2023-05-04T23:34:32.131Z,100036.03
2023-05-04T23:37:01.860Z,100022.56
2023-05-04T23:39:31.517Z,100028.03
2023-05-04T23:42:01.252Z,100022.47
2023-05-04T23:44:30.920Z,100023.44
2023-05-04T23:47:03.201Z,100027.81
2023-05-04T23:49:32.974Z,100011.78
2023-05-04T23:52:02.652Z,100025.84
2023-05-04T23:54:32.398Z,100023.66
2023-05-04T23:57:02.021Z,100025.34
2023-05-04T23:59:31.717Z,100027.16
